Time;durP1;ratioP1;P1;durP2;ratioP2;P2;SDS_P1;SDS_P2;PMS_P1;PMS_P2;Temp;Humidity;BMP_temperature;BMP_pressure;BME280_temperature;BME280_humidity;BME280_pressure;Samples;Min_cycle;Max_cycle;Signal;HPM_P1;HPM_P2
2023/08/28 00:00:19;;;;;;;4.43;2.47;;;17.00;99.90;;;;;;5072699;28;20196;-83
2023/08/28 00:02:50;;;;;;;4.78;2.58;;;17.10;99.90;;;;;;5081071;28;20199;-83
2023/08/28 00:05:20;;;;;;;5.13;2.70;;;17.20;99.90;;;;;;5074624;28;20220;-80
2023/08/28 00:07:53;;;;;;;3.55;2.65;;;17.40;99.90;;;;;;5075483;28;20588;-82
2023/08/28 00:10:24;;;;;;;7.25;3.15;;;17.70;99.90;;;;;;5076907;28;20200;-81
2023/08/28 00:12:55;;;;;;;8.15;4.05;;;17.90;99.90;;;;;;5075689;28;20573;-81
2023/08/28 00:15:26;;;;;;;4.93;3.03;;;18.10;99.90;;;;;;5087911;28;20189;-81
2023/08/28 00:17:56;;;;;;;5.75;3.33;;;18.30;99.90;;;;;;5093711;28;20211;-83
2023/08/28 00:20:27;;;;;;;4.85;2.78;;;18.40;99.90;;;;;;5093703;28;20200;-81
2023/08/28 00:23:00;;;;;;;6.55;3.00;;;18.40;99.90;;;;;;5077133;28;20250;-81
2023/08/28 00:25:30;;;;;;;6.13;2.75;;;18.60;99.90;;;;;;5094923;28;20273;-80
2023/08/28 00:28:01;;;;;;;4.13;2.35;;;18.70;99.90;;;;;;5096134;28;20222;-81
2023/08/28 00:30:32;;;;;;;3.70;2.47;;;18.90;99.90;;;;;;5092857;28;20196;-81
2023/08/28 00:33:03;;;;;;;5.13;2.35;;;18.90;99.90;;;;;;5076175;28;20196;-81
2023/08/28 00:35:33;;;;;;;4.32;1.95;;;19.10;99.90;;;;;;5076085;28;20246;-78
2023/08/28 00:38:06;;;;;;;3.53;1.90;;;19.20;99.90;;;;;;5075652;28;20185;-79
2023/08/28 00:40:40;;;;;;;4.10;1.80;;;19.20;99.90;;;;;;5076119;28;20232;-80
2023/08/28 00:43:12;;;;;;;3.50;1.67;;;19.30;99.90;;;;;;5076274;28;20193;-81
2023/08/28 00:45:45;;;;;;;7.25;2.30;;;19.30;99.90;;;;;;5076240;28;20225;-79
2023/08/28 00:48:20;;;;;;;5.10;1.90;;;19.40;99.90;;;;;;5083065;28;20672;-79
2023/08/28 00:50:52;;;;;;;2.80;1.67;;;19.50;99.90;;;;;;5096342;28;20195;-81
2023/08/28 00:53:25;;;;;;;2.45;1.40;;;19.60;99.90;;;;;;5096119;28;20227;-77
2023/08/28 00:55:56;;;;;;;5.35;1.83;;;19.70;99.90;;;;;;5096230;28;20203;-76
2023/08/28 00:58:27;;;;;;;4.43;1.70;;;19.80;99.90;;;;;;5096376;28;20196;-80
2023/08/28 01:00:58;;;;;;;5.13;1.48;;;19.90;99.90;;;;;;5096213;28;20196;-79
2023/08/28 01:03:28;;;;;;;2.58;1.20;;;19.90;99.90;;;;;;5096298;28;20184;-82
2023/08/28 01:06:08;;;;;;;3.38;1.40;;;19.90;99.90;;;;;;5093609;28;20222;-80
2023/08/28 01:08:50;;;;;;;2.50;1.10;;;20.00;99.90;;;;;;5075984;28;20197;-84
2023/08/28 01:11:27;;;;;;;2.17;0.88;;;19.90;99.90;;;;;;5075732;28;20565;-82
2023/08/28 01:14:04;;;;;;;1.70;1.00;;;20.00;99.90;;;;;;5076081;28;20201;-79
2023/08/28 01:16:36;;;;;;;1.85;1.00;;;20.10;99.90;;;;;;5075730;28;20560;-83
2023/08/28 01:19:10;;;;;;;2.05;0.80;;;20.10;99.90;;;;;;5075569;28;20200;-82
2023/08/28 01:21:44;;;;;;;1.38;0.77;;;20.30;99.90;;;;;;5075341;28;20196;-83
2023/08/28 01:24:21;;;;;;;6.88;2.03;;;20.30;99.90;;;;;;5087208;28;20206;-83
2023/08/28 01:26:54;;;;;;;1.27;0.90;;;20.50;99.90;;;;;;5095651;28;20212;-81
2023/08/28 01:29:24;;;;;;;2.35;1.00;;;20.60;99.90;;;;;;5094371;28;20192;-83
2023/08/28 01:31:55;;;;;;;1.35;0.70;;;20.60;99.90;;;;;;5095618;28;20196;-86
2023/08/28 01:34:26;;;;;;;1.63;0.70;;;20.70;99.90;;;;;;5095684;28;20189;-83
2023/08/28 01:37:04;;;;;;;2.53;0.70;;;20.70;99.90;;;;;;5095587;28;20198;-81
2023/08/28 01:39:41;;;;;;;1.80;0.70;;;20.70;99.90;;;;;;5095366;28;20549;-82
2023/08/28 01:42:14;;;;;;;2.22;0.80;;;20.60;99.90;;;;;;5092113;28;20218;-81
2023/08/28 01:44:46;;;;;;;1.20;0.52;;;20.80;99.90;;;;;;5086463;28;20205;-83
2023/08/28 01:47:17;;;;;;;2.03;0.80;;;21.10;99.90;;;;;;5075234;28;20213;-81
2023/08/28 01:49:48;;;;;;;0.98;0.57;;;21.20;99.90;;;;;;5074911;28;20189;-82
2023/08/28 01:52:18;;;;;;;1.35;0.60;;;21.40;99.90;;;;;;5075146;28;20192;-81
2023/08/28 01:54:50;;;;;;;1.33;0.60;;;21.80;99.90;;;;;;5075286;28;20185;-86
2023/08/28 01:57:22;;;;;;;0.88;0.73;;;22.00;99.90;;;;;;5075565;28;20193;-83
2023/08/28 01:59:53;;;;;;;1.90;0.70;;;22.00;99.90;;;;;;5076972;28;20242;-80
2023/08/28 02:02:24;;;;;;;1.75;0.70;;;21.80;99.90;;;;;;5094668;28;20644;-83
2023/08/28 02:04:54;;;;;;;1.30;0.70;;;21.80;99.90;;;;;;5094786;28;20602;-81
2023/08/28 02:07:25;;;;;;;0.90;0.60;;;22.00;99.90;;;;;;5095096;28;20196;-83
2023/08/28 02:09:56;;;;;;;2.25;0.68;;;22.00;99.90;;;;;;5094919;28;20188;-84
2023/08/28 02:12:28;;;;;;;1.55;0.60;;;21.90;99.90;;;;;;5094426;28;20231;-82
2023/08/28 02:14:59;;;;;;;0.80;0.50;;;21.80;99.90;;;;;;5094752;28;20184;-85
2023/08/28 02:17:30;;;;;;;0.88;0.60;;;21.80;99.90;;;;;;5094714;28;20196;-83
2023/08/28 02:20:01;;;;;;;0.57;0.50;;;21.60;99.90;;;;;;5078873;28;20554;-80
2023/08/28 02:22:32;;;;;;;3.92;2.00;;;21.50;99.90;;;;;;5074324;28;20558;-83
2023/08/28 02:25:05;;;;;;;0.88;0.68;;;21.40;99.90;;;;;;5074330;28;20204;-83
2023/08/28 02:27:38;;;;;;;0.70;0.60;;;21.30;99.90;;;;;;5074190;28;20707;-84
2023/08/28 02:30:09;;;;;;;0.88;0.57;;;21.30;99.90;;;;;;5074118;28;20195;-85
2023/08/28 02:32:40;;;;;;;2.45;0.50;;;21.20;99.90;;;;;;5074129;28;20195;-85
2023/08/28 02:35:11;;;;;;;2.50;0.73;;;21.20;99.90;;;;;;5081381;28;20215;-82
2023/08/28 02:37:43;;;;;;;1.67;0.80;;;21.20;99.90;;;;;;5087267;28;20197;-81
2023/08/28 02:40:15;;;;;;;1.58;0.80;;;21.00;99.90;;;;;;5084752;28;20216;-85
2023/08/28 02:42:47;;;;;;;1.50;0.80;;;21.00;99.90;;;;;;5082071;28;20196;-84
2023/08/28 02:45:18;;;;;;;1.65;0.80;;;21.00;99.90;;;;;;5077489;28;20197;-85
2023/08/28 02:47:49;;;;;;;3.42;0.88;;;21.10;99.90;;;;;;5081068;28;20201;-88
2023/08/28 02:50:20;;;;;;;1.20;0.80;;;21.10;99.90;;;;;;5077560;28;20200;-84
2023/08/28 02:52:51;;;;;;;2.03;0.90;;;21.00;99.90;;;;;;5087481;28;20267;-81
2023/08/28 02:55:22;;;;;;;4.25;1.02;;;20.90;99.90;;;;;;5073752;28;20200;-84
2023/08/28 02:57:54;;;;;;;4.82;0.90;;;20.70;99.90;;;;;;5073779;28;20185;-82
2023/08/28 03:00:25;;;;;;;2.03;0.85;;;20.80;99.90;;;;;;5081226;28;20192;-83
2023/08/28 03:02:56;;;;;;;5.05;0.98;;;20.80;99.90;;;;;;5093403;28;20648;-82
2023/08/28 03:05:27;;;;;;;5.88;1.02;;;20.80;99.90;;;;;;5093911;28;20644;-80
2023/08/28 03:07:57;;;;;;;1.88;1.20;;;20.70;99.90;;;;;;5092750;28;20655;-82
2023/08/28 03:10:28;;;;;;;3.72;1.20;;;20.70;99.90;;;;;;5093547;28;20543;-83
2023/08/28 03:13:01;;;;;;;3.50;1.10;;;20.80;99.90;;;;;;5093415;28;20228;-83
2023/08/28 03:15:33;;;;;;;2.17;0.93;;;20.90;99.90;;;;;;5093114;28;20192;-83
2023/08/28 03:18:04;;;;;;;3.60;1.02;;;20.90;99.90;;;;;;5073238;28;20191;-84
2023/08/28 03:20:36;;;;;;;3.20;1.40;;;21.10;99.90;;;;;;5074764;28;20196;-82
2023/08/28 03:23:09;;;;;;;4.55;1.33;;;21.40;99.90;;;;;;5082479;28;20201;-85
2023/08/28 03:25:40;;;;;;;4.57;1.10;;;21.50;99.90;;;;;;5089161;28;20748;-86
2023/08/28 03:28:12;;;;;;;2.65;1.00;;;21.40;99.90;;;;;;5089639;28;20663;-88
2023/08/28 03:30:43;;;;;;;4.28;1.20;;;21.20;99.90;;;;;;5080535;28;20187;-85
2023/08/28 03:33:14;;;;;;;2.97;1.00;;;21.20;99.90;;;;;;5083809;28;20197;-82
2023/08/28 03:35:45;;;;;;;2.55;1.33;;;21.00;99.90;;;;;;5073171;28;20199;-84
2023/08/28 03:38:15;;;;;;;3.47;1.25;;;20.90;99.90;;;;;;5073057;28;20691;-82
2023/08/28 03:40:47;;;;;;;3.38;1.10;;;20.90;99.90;;;;;;5079627;28;20216;-83
2023/08/28 03:43:20;;;;;;;3.88;1.20;;;20.70;99.90;;;;;;5085773;28;20192;-81
2023/08/28 03:45:51;;;;;;;3.25;1.25;;;20.60;99.90;;;;;;5072830;28;20300;-82
2023/08/28 03:48:21;;;;;;;3.38;1.20;;;20.60;99.90;;;;;;5072946;28;20200;-84
2023/08/28 03:50:52;;;;;;;2.97;1.20;;;20.60;99.90;;;;;;5077920;28;20205;-83
2023/08/28 03:53:23;;;;;;;4.50;1.80;;;20.60;99.90;;;;;;5071372;28;20271;-82
2023/08/28 03:55:54;;;;;;;1.52;1.00;;;20.50;99.90;;;;;;5072875;28;20197;-84
2023/08/28 03:58:27;;;;;;;3.15;0.98;;;20.40;99.90;;;;;;5072640;28;20632;-82
2023/08/28 04:00:58;;;;;;;2.40;0.93;;;20.50;99.90;;;;;;5073102;28;20192;-83
2023/08/28 04:03:28;;;;;;;2.90;1.00;;;20.60;99.90;;;;;;5073246;28;20208;-86
2023/08/28 04:06:02;;;;;;;2.63;1.20;;;20.70;99.90;;;;;;5073528;28;20204;-83
2023/08/28 04:08:32;;;;;;;6.18;1.02;;;20.70;99.90;;;;;;5073148;28;20197;-82
2023/08/28 04:11:03;;;;;;;3.17;1.05;;;20.70;99.90;;;;;;5072861;28;20208;-81
2023/08/28 04:13:36;;;;;;;3.33;1.00;;;20.50;99.90;;;;;;5072528;28;20688;-83
2023/08/28 04:16:07;;;;;;;3.92;1.10;;;20.40;99.90;;;;;;5072565;28;20337;-82
2023/08/28 04:18:38;;;;;;;2.80;1.10;;;20.40;99.90;;;;;;5087831;28;20196;-80
2023/08/28 04:21:09;;;;;;;2.67;1.23;;;20.50;99.90;;;;;;5086777;28;20211;-83
2023/08/28 04:23:40;;;;;;;4.07;1.10;;;20.50;99.90;;;;;;5075777;28;20203;-81
2023/08/28 04:26:11;;;;;;;2.92;1.10;;;20.50;99.90;;;;;;5092026;28;20679;-82
2023/08/28 04:28:43;;;;;;;1.73;0.95;;;20.50;99.90;;;;;;5083168;28;20276;-80
2023/08/28 04:31:15;;;;;;;2.65;1.33;;;20.60;99.90;;;;;;5089949;28;20644;-83
2023/08/28 04:33:46;;;;;;;1.83;1.20;;;20.50;99.90;;;;;;5092125;28;20193;-82
2023/08/28 04:36:17;;;;;;;3.15;1.02;;;20.60;99.90;;;;;;5092111;28;20601;-79
2023/08/28 04:38:47;;;;;;;6.20;1.30;;;20.60;99.90;;;;;;5090341;28;20662;-83
2023/08/28 04:41:18;;;;;;;1.75;1.05;;;20.60;99.90;;;;;;5072575;28;20225;-81
2023/08/28 04:43:51;;;;;;;9.98;1.98;;;20.60;99.90;;;;;;5072243;28;20185;-82
2023/08/28 04:46:22;;;;;;;8.05;1.50;;;20.60;99.90;;;;;;5080884;28;20223;-78
2023/08/28 04:48:55;;;;;;;3.72;1.40;;;20.50;99.90;;;;;;5092454;28;20641;-79
2023/08/28 04:51:26;;;;;;;5.43;1.45;;;20.50;99.90;;;;;;5082549;28;20316;-79
2023/08/28 04:53:57;;;;;;;2.65;1.00;;;20.50;99.90;;;;;;5073735;28;20558;-78
2023/08/28 04:56:28;;;;;;;2.25;0.98;;;20.50;99.90;;;;;;5091699;28;20195;-79
2023/08/28 04:59:00;;;;;;;3.78;1.17;;;20.50;99.90;;;;;;5090483;28;20663;-75
2023/08/28 05:01:31;;;;;;;3.17;1.00;;;20.30;99.90;;;;;;5091941;28;20215;-81
2023/08/28 05:04:02;;;;;;;1.98;0.80;;;20.10;99.90;;;;;;5093951;28;20569;-81
2023/08/28 05:06:33;;;;;;;2.33;0.90;;;20.10;99.90;;;;;;5095168;28;20211;-80
2023/08/28 05:09:04;;;;;;;3.20;0.98;;;20.20;99.90;;;;;;5095691;28;20185;-81
2023/08/28 05:11:34;;;;;;;2.25;0.70;;;20.30;99.90;;;;;;5095588;28;20254;-78
2023/08/28 05:14:07;;;;;;;3.97;0.82;;;20.40;99.90;;;;;;5093819;28;20193;-82
2023/08/28 05:16:38;;;;;;;3.45;0.82;;;20.30;99.90;;;;;;5076339;28;20625;-82
2023/08/28 05:19:09;;;;;;;2.72;0.70;;;20.40;99.90;;;;;;5094097;28;20188;-80
2023/08/28 05:21:39;;;;;;;3.53;1.17;;;20.50;99.90;;;;;;5092094;28;20828;-81
2023/08/28 05:24:10;;;;;;;1.88;0.70;;;20.50;99.90;;;;;;5086048;28;20207;-82
2023/08/28 05:26:41;;;;;;;2.45;0.70;;;20.40;99.90;;;;;;5078337;28;20224;-84
2023/08/28 05:29:14;;;;;;;4.43;1.30;;;20.30;99.90;;;;;;5086511;28;20200;-82
2023/08/28 05:31:45;;;;;;;1.80;0.85;;;20.30;99.90;;;;;;5075665;28;20201;-81
2023/08/28 05:34:16;;;;;;;2.38;0.80;;;20.30;99.90;;;;;;5075724;28;20221;-80
2023/08/28 05:36:46;;;;;;;2.10;0.90;;;20.20;99.90;;;;;;5075468;28;20203;-81
2023/08/28 05:39:17;;;;;;;4.07;1.00;;;20.30;99.90;;;;;;5074972;28;20221;-80
2023/08/28 05:41:48;;;;;;;1.08;0.63;;;20.10;99.90;;;;;;5080371;28;20200;-81
2023/08/28 05:44:21;;;;;;;1.48;0.70;;;20.10;99.90;;;;;;5092963;28;20189;-79
2023/08/28 05:46:51;;;;;;;1.38;0.60;;;20.00;99.90;;;;;;5094955;28;20222;-83
2023/08/28 05:49:22;;;;;;;1.85;0.60;;;20.00;99.90;;;;;;5086053;28;20192;-80
2023/08/28 05:51:53;;;;;;;3.20;0.85;;;19.90;99.90;;;;;;5094025;28;20557;-80
2023/08/28 05:54:23;;;;;;;2.05;0.80;;;19.80;99.90;;;;;;5074920;28;20188;-81
2023/08/28 05:56:54;;;;;;;1.92;0.77;;;19.50;99.90;;;;;;5074673;28;20193;-80
2023/08/28 05:59:27;;;;;;;3.20;0.93;;;19.50;99.90;;;;;;5074706;28;20326;-78
2023/08/28 06:01:58;;;;;;;2.85;0.77;;;19.40;99.90;;;;;;5074734;28;20193;-79
2023/08/28 06:04:28;;;;;;;1.17;0.60;;;19.30;99.90;;;;;;5074718;28;20189;-80
2023/08/28 06:06:59;;;;;;;2.22;0.82;;;19.20;99.90;;;;;;5074398;28;20212;-79
2023/08/28 06:09:30;;;;;;;2.78;0.90;;;19.10;99.90;;;;;;5074687;28;20200;-79
2023/08/28 06:12:01;;;;;;;2.83;0.85;;;19.00;99.90;;;;;;5073973;28;20236;-80
2023/08/28 06:14:33;;;;;;;2.38;1.02;;;18.90;99.90;;;;;;5074449;28;20276;-78
2023/08/28 06:17:05;;;;;;;1.75;0.80;;;18.80;99.90;;;;;;5087400;28;20202;-80
2023/08/28 06:19:36;;;;;;;2.15;1.00;;;18.70;99.90;;;;;;5074750;28;20189;-80
2023/08/28 06:22:07;;;;;;;2.35;0.80;;;18.60;99.90;;;;;;5075502;28;20188;-79
2023/08/28 06:24:38;;;;;;;3.15;1.00;;;18.60;99.90;;;;;;5084983;28;20189;-78
2023/08/28 06:27:09;;;;;;;2.15;0.95;;;18.50;99.90;;;;;;5074121;28;20225;-79
2023/08/28 06:29:41;;;;;;;4.32;1.20;;;18.40;99.90;;;;;;5073941;28;20189;-79
2023/08/28 06:32:12;;;;;;;4.90;1.27;;;18.30;99.90;;;;;;5074205;28;20633;-79
2023/08/28 06:34:43;;;;;;;4.22;1.10;;;18.30;99.90;;;;;;5074133;28;20191;-78
2023/08/28 06:37:13;;;;;;;3.63;1.27;;;18.20;99.90;;;;;;5074042;28;20201;-79
2023/08/28 06:39:44;;;;;;;2.90;1.10;;;18.20;99.90;;;;;;5073631;28;20240;-80
2023/08/28 06:42:15;;;;;;;3.75;1.70;;;18.20;99.90;;;;;;5074564;28;20655;-78
2023/08/28 06:44:48;;;;;;;3.05;1.30;;;18.10;99.90;;;;;;5094134;28;20192;-79
2023/08/28 06:47:18;;;;;;;3.35;1.30;;;18.10;99.90;;;;;;5094127;28;20259;-79
2023/08/28 06:49:49;;;;;;;2.55;1.10;;;18.10;99.90;;;;;;5094095;28;20648;-80
2023/08/28 06:52:20;;;;;;;4.93;1.02;;;18.10;99.90;;;;;;5094135;28;20211;-79
2023/08/28 06:54:51;;;;;;;5.20;1.30;;;18.10;99.90;;;;;;5093138;28;20185;-80
2023/08/28 06:57:22;;;;;;;4.43;1.20;;;18.00;99.90;;;;;;5094062;28;20198;-80
2023/08/28 06:59:55;;;;;;;2.03;1.00;;;18.00;99.90;;;;;;5076591;28;20193;-78
2023/08/28 07:02:26;;;;;;;3.83;1.23;;;18.00;99.90;;;;;;5073918;28;20185;-80
2023/08/28 07:04:56;;;;;;;2.60;1.17;;;17.90;99.90;;;;;;5073724;28;20193;-80
2023/08/28 07:07:27;;;;;;;3.45;0.95;;;17.90;99.90;;;;;;5073426;28;20227;-81
2023/08/28 07:09:58;;;;;;;2.55;0.88;;;17.80;99.90;;;;;;5073296;28;20193;-79
2023/08/28 07:12:29;;;;;;;2.45;1.00;;;17.80;99.90;;;;;;5073163;28;20243;-80
2023/08/28 07:15:31;;;;;;;3.42;0.90;;;17.70;99.90;;;;;;5073342;28;20199;-81
2023/08/28 07:18:03;;;;;;;3.92;0.90;;;17.70;99.90;;;;;;5053646;28;20210;-78
2023/08/28 07:20:34;;;;;;;4.97;2.35;;;17.70;99.90;;;;;;5088182;28;20200;-79
2023/08/28 07:23:05;;;;;;;4.20;1.42;;;17.60;99.90;;;;;;5076755;28;20195;-79
2023/08/28 07:25:36;;;;;;;3.60;1.23;;;17.60;99.90;;;;;;5072525;28;20193;-80
2023/08/28 07:28:07;;;;;;;2.58;1.27;;;17.50;99.90;;;;;;5073084;28;20216;-81
2023/08/28 07:30:38;;;;;;;1.75;1.02;;;17.50;99.90;;;;;;5073899;28;20207;-80
2023/08/28 07:33:11;;;;;;;5.93;2.92;;;17.50;99.90;;;;;;5073191;28;20623;-80
2023/08/28 07:35:45;;;;;;;4.10;2.55;;;17.40;99.90;;;;;;5072889;28;20239;-80
2023/08/28 07:38:15;;;;;;;2.70;1.50;;;17.40;99.90;;;;;;5080329;28;20203;-80
2023/08/28 07:40:48;;;;;;;2.90;1.10;;;17.40;99.90;;;;;;5093243;28;20198;-81
2023/08/28 07:43:19;;;;;;;2.33;1.08;;;17.40;99.90;;;;;;5093276;28;20203;-79
2023/08/28 07:45:50;;;;;;;4.68;0.88;;;17.30;99.90;;;;;;5091137;28;20205;-79
2023/08/28 07:48:23;;;;;;;2.92;1.23;;;17.30;99.90;;;;;;5081595;28;20212;-79
2023/08/28 07:50:54;;;;;;;4.93;1.20;;;17.30;99.90;;;;;;5073049;28;20254;-80
2023/08/28 07:53:25;;;;;;;3.22;1.10;;;17.30;99.90;;;;;;5072995;28;20220;-80
2023/08/28 07:55:55;;;;;;;4.47;1.30;;;17.20;99.90;;;;;;5073438;28;20228;-80
2023/08/28 07:58:26;;;;;;;2.55;1.20;;;17.20;99.90;;;;;;5073037;28;20197;-80
2023/08/28 08:00:57;;;;;;;4.35;1.10;;;17.20;99.90;;;;;;5072904;28;20189;-79
2023/08/28 08:03:30;;;;;;;4.47;1.50;;;17.20;99.90;;;;;;5080374;28;20184;-77
2023/08/28 08:06:00;;;;;;;3.75;1.08;;;17.20;99.90;;;;;;5083364;28;20189;-78
2023/08/28 08:08:31;;;;;;;2.78;1.17;;;17.10;99.90;;;;;;5087849;28;20216;-79
2023/08/28 08:11:02;;;;;;;2.97;1.20;;;17.10;99.90;;;;;;5087462;28;20199;-78
2023/08/28 08:13:33;;;;;;;1.83;1.15;;;17.20;99.90;;;;;;5081448;28;20225;-78
2023/08/28 08:16:04;;;;;;;2.75;1.30;;;17.10;99.90;;;;;;5072005;28;20201;-78
2023/08/28 08:18:37;;;;;;;3.13;1.10;;;17.10;99.90;;;;;;5072351;28;20676;-80
2023/08/28 08:21:07;;;;;;;2.85;1.20;;;17.10;99.90;;;;;;5072822;28;20200;-79
2023/08/28 08:23:38;;;;;;;2.80;1.10;;;17.10;99.90;;;;;;5072592;28;20200;-77
2023/08/28 08:26:09;;;;;;;5.13;1.83;;;17.10;99.90;;;;;;5079731;28;20212;-79
2023/08/28 08:28:41;;;;;;;3.65;1.60;;;17.10;99.90;;;;;;5081142;28;20223;-78
2023/08/28 08:31:11;;;;;;;3.53;1.33;;;17.00;99.90;;;;;;5072407;28;20679;-79
2023/08/28 08:33:44;;;;;;;4.07;1.35;;;17.00;99.90;;;;;;5072493;28;20211;-78
2023/08/28 08:36:17;;;;;;;3.97;1.60;;;17.00;99.90;;;;;;5075520;28;20205;-79
2023/08/28 08:38:47;;;;;;;3.13;1.20;;;17.00;99.90;;;;;;5084000;28;20239;-79
2023/08/28 08:41:18;;;;;;;2.08;1.13;;;16.90;99.90;;;;;;5076024;28;20201;-78
2023/08/28 08:43:49;;;;;;;3.63;1.20;;;16.90;99.90;;;;;;5084887;28;20652;-78
2023/08/28 08:46:22;;;;;;;3.70;1.10;;;16.90;99.90;;;;;;5079832;28;20205;-78
2023/08/28 08:48:56;;;;;;;3.97;1.50;;;16.90;99.90;;;;;;5075710;28;20308;-78
2023/08/28 08:51:30;;;;;;;2.47;1.13;;;16.90;99.90;;;;;;5075547;28;20201;-78
2023/08/28 08:54:04;;;;;;;5.45;1.25;;;16.90;99.90;;;;;;5075818;28;20211;-78
2023/08/28 08:56:37;;;;;;;2.88;1.10;;;16.90;99.90;;;;;;5090464;28;20200;-79
2023/08/28 08:59:08;;;;;;;3.40;1.15;;;17.00;99.90;;;;;;5085928;28;20207;-77
2023/08/28 09:01:40;;;;;;;3.10;1.20;;;17.00;99.90;;;;;;5083823;28;20283;-78
2023/08/28 09:04:14;;;;;;;3.33;1.38;;;16.90;99.90;;;;;;5095829;28;20192;-79
2023/08/28 09:06:45;;;;;;;2.63;1.20;;;16.90;99.90;;;;;;5084732;28;20567;-77
2023/08/28 09:09:16;;;;;;;2.72;1.30;;;16.90;99.90;;;;;;5075567;28;20221;-79
2023/08/28 09:11:48;;;;;;;2.97;1.35;;;16.90;99.90;;;;;;5075771;28;20225;-77
2023/08/28 09:14:19;;;;;;;2.88;1.30;;;17.00;99.90;;;;;;5090819;28;20197;-78
2023/08/28 09:16:50;;;;;;;1.67;1.00;;;16.90;99.90;;;;;;5075562;28;20272;-80
2023/08/28 09:19:23;;;;;;;1.55;1.05;;;16.90;99.90;;;;;;5082304;28;20196;-78
2023/08/28 09:21:54;;;;;;;3.13;1.20;;;16.90;99.90;;;;;;5094189;28;20200;-79
2023/08/28 09:24:29;;;;;;;2.67;1.60;;;16.90;99.90;;;;;;5075590;28;20593;-79
2023/08/28 09:26:59;;;;;;;3.13;1.30;;;17.00;99.90;;;;;;5075072;28;20323;-78
2023/08/28 09:29:30;;;;;;;3.50;1.30;;;17.00;99.90;;;;;;5079361;28;20219;-78
2023/08/28 09:32:04;;;;;;;4.65;1.70;;;17.10;99.90;;;;;;5081705;28;20227;-77
2023/08/28 09:34:44;;;;;;;4.07;1.60;;;17.20;99.90;;;;;;5082355;28;20209;-76
2023/08/28 09:37:15;;;;;;;2.97;1.50;;;17.20;99.90;;;;;;5074841;28;20196;-77
2023/08/28 09:39:58;;;;;;;4.95;1.75;;;17.20;99.90;;;;;;5079028;28;20224;-76
2023/08/28 09:42:30;;;;;;;2.97;1.40;;;17.20;99.90;;;;;;5075028;28;20668;-78
2023/08/28 09:45:00;;;;;;;4.40;1.77;;;17.20;99.90;;;;;;5079587;28;20196;-78
2023/08/28 09:47:32;;;;;;;4.03;1.58;;;17.20;99.90;;;;;;5081770;28;20203;-77
2023/08/28 09:50:07;;;;;;;2.30;1.50;;;17.20;99.90;;;;;;5073468;28;20203;-77
2023/08/28 09:52:38;;;;;;;3.05;1.30;;;17.10;99.90;;;;;;5075598;28;20558;-77
2023/08/28 09:55:09;;;;;;;3.80;1.30;;;17.10;99.90;;;;;;5086639;28;20193;-77
2023/08/28 09:57:45;;;;;;;2.20;1.30;;;17.20;99.90;;;;;;5074542;28;20216;-78
2023/08/28 10:00:16;;;;;;;2.47;1.40;;;17.10;99.90;;;;;;5074752;28;20196;-78
2023/08/28 10:02:47;;;;;;;2.15;1.40;;;17.20;99.90;;;;;;5074435;28;20637;-78
2023/08/28 10:05:20;;;;;;;4.53;2.20;;;17.10;99.90;;;;;;5081764;28;20204;-79
2023/08/28 10:07:57;;;;;;;3.88;1.73;;;17.20;99.90;;;;;;5074736;28;20680;-78
2023/08/28 10:10:29;;;;;;;2.13;1.30;;;17.10;99.90;;;;;;5074294;28;20194;-78
2023/08/28 10:13:01;;;;;;;3.33;1.60;;;17.10;99.90;;;;;;5083631;28;20773;-77
2023/08/28 10:15:32;;;;;;;3.88;1.50;;;17.10;99.90;;;;;;5093996;28;20656;-78
2023/08/28 10:18:07;;;;;;;3.33;1.20;;;17.10;99.90;;;;;;5094202;28;20197;-78
2023/08/28 10:20:39;;;;;;;2.08;1.60;;;17.00;99.90;;;;;;5080700;28;20192;-78
2023/08/28 10:23:12;;;;;;;2.75;1.45;;;17.00;99.90;;;;;;5091655;28;20185;-79
2023/08/28 10:25:45;;;;;;;3.15;1.40;;;17.00;99.90;;;;;;5090233;28;20191;-77
2023/08/28 10:28:17;;;;;;;2.08;1.38;;;17.00;99.90;;;;;;5074199;28;20216;-77
2023/08/28 10:30:49;;;;;;;2.80;1.30;;;17.00;99.90;;;;;;5076079;28;20229;-78
2023/08/28 10:33:21;;;;;;;2.38;1.30;;;16.90;99.90;;;;;;5093900;28;20200;-76
2023/08/28 10:35:56;;;;;;;3.10;1.40;;;17.00;99.90;;;;;;5094229;28;20188;-77
2023/08/28 10:38:27;;;;;;;2.97;1.60;;;16.90;99.90;;;;;;5083723;28;20597;-78
2023/08/28 10:41:00;;;;;;;2.75;1.55;;;16.90;99.90;;;;;;5081156;28;20196;-77
2023/08/28 10:43:31;;;;;;;2.25;1.65;;;16.80;99.90;;;;;;5081649;28;20551;-77
2023/08/28 10:46:04;;;;;;;3.35;1.60;;;16.80;99.90;;;;;;5092366;28;20200;-77
2023/08/28 10:48:39;;;;;;;2.53;1.45;;;16.70;99.90;;;;;;5089177;28;20215;-77
2023/08/28 10:51:14;;;;;;;3.85;1.83;;;16.70;99.90;;;;;;5074057;28;20207;-76
2023/08/28 10:53:45;;;;;;;4.60;1.83;;;16.70;99.90;;;;;;5074099;28;20663;-76
2023/08/28 10:56:16;;;;;;;2.40;1.65;;;16.70;99.90;;;;;;5092882;28;20210;-78
2023/08/28 10:58:47;;;;;;;4.82;1.73;;;16.60;99.90;;;;;;5093993;28;20188;-77
2023/08/28 11:01:18;;;;;;;3.50;1.70;;;16.60;99.90;;;;;;5082792;28;20242;-78
2023/08/28 11:04:17;;;;;;;3.25;1.70;;;16.60;99.90;;;;;;5073673;28;20197;-78
2023/08/28 11:06:50;;;;;;;2.10;1.50;;;16.60;99.90;;;;;;5078943;28;20193;-78
2023/08/28 11:09:40;;;;;;;2.22;1.60;;;16.60;99.90;;;;;;5089177;28;20216;-77
2023/08/28 11:12:43;;;;;;;2.60;1.50;;;16.50;99.90;;;;;;5083238;28;20628;-77
2023/08/28 11:15:14;;;;;;;3.72;1.85;;;16.50;99.90;;;;;;5073283;28;20235;-77
2023/08/28 11:17:45;;;;;;;3.03;1.88;;;16.40;99.90;;;;;;5073369;28;20199;-79
2023/08/28 11:20:16;;;;;;;2.90;1.80;;;16.40;99.90;;;;;;5073229;28;20185;-78
2023/08/28 11:22:49;;;;;;;3.30;1.80;;;16.40;99.90;;;;;;5072056;28;20205;-78
2023/08/28 11:25:39;;;;;;;3.05;1.80;;;16.30;99.90;;;;;;5086886;28;20200;-77
2023/08/28 11:28:29;;;;;;;4.78;1.70;;;16.30;99.90;;;;;;5077361;28;20220;-78
2023/08/28 11:31:06;;;;;;;3.60;1.63;;;16.30;99.90;;;;;;5072951;28;20189;-77
2023/08/28 11:33:41;;;;;;;3.55;2.00;;;16.30;99.90;;;;;;5073137;28;20284;-79
2023/08/28 11:36:14;;;;;;;6.13;2.40;;;16.30;99.90;;;;;;5072992;28;20231;-77
2023/08/28 11:38:47;;;;;;;3.28;2.25;;;16.30;99.90;;;;;;5091388;28;20691;-76
2023/08/28 11:41:18;;;;;;;2.70;2.38;;;16.20;99.90;;;;;;5093442;28;20682;-76
2023/08/28 11:43:49;;;;;;;6.68;4.30;;;16.30;99.90;;;;;;5089825;28;20197;-77
2023/08/28 11:46:26;;;;;;;6.38;3.50;;;16.20;99.90;;;;;;5093174;28;20207;-76
2023/08/28 11:48:57;;;;;;;4.80;2.83;;;16.10;99.90;;;;;;5093163;28;20216;-76
2023/08/28 11:51:29;;;;;;;5.80;2.80;;;16.10;99.90;;;;;;5093036;28;20192;-75
2023/08/28 11:54:03;;;;;;;4.13;2.55;;;16.00;99.90;;;;;;5093173;28;20192;-77
2023/08/28 11:56:38;;;;;;;4.00;2.53;;;16.00;99.90;;;;;;5092956;28;20275;-76
2023/08/28 11:59:10;;;;;;;5.28;2.40;;;16.00;99.90;;;;;;5092756;28;20192;-77
2023/08/28 12:01:41;;;;;;;3.63;2.47;;;16.00;99.90;;;;;;5090978;28;20192;-77
2023/08/28 12:04:11;;;;;;;3.97;2.33;;;16.00;99.90;;;;;;5087075;28;20206;-76
2023/08/28 12:06:42;;;;;;;4.78;2.60;;;16.00;99.90;;;;;;5082998;28;20267;-77
2023/08/28 12:09:15;;;;;;;3.45;2.38;;;16.00;99.90;;;;;;5072830;28;20217;-76
2023/08/28 12:11:47;;;;;;;3.03;2.13;;;16.00;99.90;;;;;;5091237;28;20316;-76
2023/08/28 12:14:22;;;;;;;3.47;2.33;;;15.90;99.90;;;;;;5095611;28;20184;-76
2023/08/28 12:17:00;;;;;;;5.72;2.40;;;16.00;99.90;;;;;;5097511;28;20188;-76
2023/08/28 12:19:33;;;;;;;3.35;2.40;;;15.90;99.90;;;;;;5088439;28;20188;-77
2023/08/28 12:22:08;;;;;;;5.53;2.72;;;15.90;99.90;;;;;;5096998;28;20218;-76
2023/08/28 12:24:45;;;;;;;5.28;2.40;;;15.90;99.90;;;;;;5087616;28;20554;-77
2023/08/28 12:27:17;;;;;;;3.80;2.50;;;15.90;99.90;;;;;;5076817;28;20193;-77
2023/08/28 12:29:48;;;;;;;3.20;2.33;;;15.90;99.90;;;;;;5089602;28;20222;-76
2023/08/28 12:32:20;;;;;;;4.60;2.80;;;15.90;99.90;;;;;;5096213;28;20196;-75
2023/08/28 12:34:51;;;;;;;5.65;2.90;;;15.90;99.90;;;;;;5093370;28;20553;-78
2023/08/28 12:37:22;;;;;;;4.68;2.88;;;15.90;99.90;;;;;;5096164;28;20314;-77
2023/08/28 12:39:55;;;;;;;5.35;2.50;;;15.80;99.90;;;;;;5087057;28;20181;-76
2023/08/28 12:42:26;;;;;;;5.20;2.75;;;15.90;99.90;;;;;;5076368;28;20197;-80
2023/08/28 12:44:57;;;;;;;6.72;2.90;;;15.90;99.90;;;;;;5087294;28;20188;-77
2023/08/28 12:47:28;;;;;;;7.10;3.75;;;15.90;99.90;;;;;;5076835;28;20612;-78
2023/08/28 12:49:59;;;;;;;6.18;3.22;;;15.90;99.90;;;;;;5075925;28;20672;-75
2023/08/28 12:52:30;;;;;;;7.78;3.30;;;15.80;99.90;;;;;;5076575;28;20196;-81
2023/08/28 12:55:04;;;;;;;6.70;3.45;;;15.70;99.90;;;;;;5076397;28;20197;-76
2023/08/28 12:57:35;;;;;;;5.50;3.42;;;15.70;99.90;;;;;;5076228;28;20658;-76
2023/08/28 13:00:07;;;;;;;5.10;3.63;;;15.60;99.90;;;;;;5076084;28;20197;-77
2023/08/28 13:02:38;;;;;;;5.78;3.67;;;15.50;99.90;;;;;;5077969;28;20193;-78
2023/08/28 13:05:10;;;;;;;4.95;3.53;;;15.50;99.90;;;;;;5096214;28;20188;-78
2023/08/28 13:07:41;;;;;;;6.88;3.60;;;15.40;99.90;;;;;;5096268;28;20190;-80
2023/08/28 13:10:14;;;;;;;4.72;3.17;;;15.40;99.90;;;;;;5088715;28;20224;-77
2023/08/28 13:12:44;;;;;;;4.03;3.17;;;15.40;99.90;;;;;;5075496;28;20236;-74